createdAt,value
2023-03-05T00:00:46.605Z,42.53
2023-03-05T00:03:13.155Z,42.49
2023-03-05T00:05:39.771Z,42.74
2023-03-05T00:08:06.440Z,43.60
2023-03-05T00:10:32.930Z,43.19
2023-03-05T00:13:19.417Z,43.29
2023-03-05T00:15:46.003Z,43.02
2023-03-05T00:18:12.487Z,43.23
2023-03-05T00:20:39.036Z,42.74
2023-03-05T00:23:05.583Z,43.36
2023-03-05T00:25:34.481Z,42.12
2023-03-05T00:28:00.979Z,42.69
2023-03-05T00:30:27.498Z,42.70
2023-03-05T00:32:54.005Z,43.17
2023-03-05T00:35:20.595Z,43.77
2023-03-05T00:37:47.121Z,44.25
2023-03-05T00:40:13.682Z,43.71
2023-03-05T00:42:40.190Z,43.49
2023-03-05T00:45:08.126Z,44.53
2023-03-05T00:47:35.048Z,44.63
2023-03-05T00:50:02.609Z,44.14
2023-03-05T00:52:29.186Z,44.46
2023-03-05T00:54:55.669Z,44.36
2023-03-05T00:57:22.217Z,44.47
2023-03-05T00:59:48.685Z,44.70
2023-03-05T01:02:15.856Z,46.25
2023-03-05T01:04:42.696Z,46.83
2023-03-05T01:07:09.229Z,46.28
2023-03-05T01:09:35.761Z,45.31
2023-03-05T01:12:02.298Z,45.53
2023-03-05T01:14:28.798Z,42.63
2023-03-05T01:16:55.277Z,42.88
2023-03-05T01:19:21.795Z,41.98
2023-03-05T01:21:48.372Z,41.61
2023-03-05T01:24:14.881Z,41.80
2023-03-05T01:26:41.514Z,41.54
2023-03-05T01:29:08.129Z,41.90
2023-03-05T01:31:34.643Z,41.74
2023-03-05T01:34:01.173Z,42.53
2023-03-05T01:36:27.739Z,43.19
2023-03-05T01:38:54.607Z,43.31
2023-03-05T01:41:21.276Z,43.85
2023-03-05T01:43:49.272Z,43.63
2023-03-05T01:46:21.801Z,43.73
2023-03-05T01:48:54.431Z,43.41
2023-03-05T01:51:25.719Z,42.94
2023-03-05T01:53:54.839Z,42.01
2023-03-05T01:56:21.995Z,42.37
2023-03-05T01:58:50.759Z,42.14
2023-03-05T02:01:18.775Z,41.38
2023-03-05T02:03:47.938Z,41.78
2023-03-05T02:06:14.473Z,41.56
2023-03-05T02:08:41.213Z,41.02
2023-03-05T02:11:08.806Z,41.85
2023-03-05T02:13:37.250Z,42.16
2023-03-05T02:16:04.161Z,42.08
2023-03-05T02:18:30.707Z,42.28
2023-03-05T02:20:57.167Z,42.29
2023-03-05T02:23:26.608Z,41.79
2023-03-05T02:25:54.060Z,42.78
2023-03-05T02:28:32.030Z,42.54
2023-03-05T02:30:59.165Z,43.03
2023-03-05T02:33:25.975Z,42.88
2023-03-05T02:35:52.506Z,43.19
2023-03-05T02:38:21.006Z,43.73
2023-03-05T02:40:47.598Z,43.50
2023-03-05T02:43:14.280Z,44.02
2023-03-05T02:45:40.894Z,43.81
2023-03-05T02:48:07.448Z,43.81
2023-03-05T02:50:34.510Z,44.15
2023-03-05T02:53:01.042Z,45.28
2023-03-05T02:55:27.566Z,46.03
2023-03-05T02:57:54.062Z,46.66
2023-03-05T03:00:20.853Z,47.09
2023-03-05T03:02:47.418Z,47.91
2023-03-05T03:05:13.966Z,48.10
2023-03-05T03:07:40.520Z,47.90
2023-03-05T03:10:07.451Z,47.14
2023-03-05T03:12:41.675Z,47.67
2023-03-05T03:15:09.878Z,48.25
2023-03-05T03:17:37.005Z,48.30
2023-03-05T03:20:08.621Z,48.58
2023-03-05T03:22:35.136Z,49.53
2023-03-05T03:25:02.694Z,49.82
2023-03-05T03:27:29.184Z,50.79
2023-03-05T03:29:55.733Z,50.95
2023-03-05T03:32:22.368Z,51.00
2023-03-05T03:34:48.931Z,51.51
2023-03-05T03:37:16.205Z,51.48
2023-03-05T03:39:42.674Z,51.53
2023-03-05T03:42:09.156Z,52.16
2023-03-05T03:44:35.632Z,53.50
2023-03-05T03:47:02.123Z,54.21
2023-03-05T03:49:28.802Z,54.21
2023-03-05T03:51:55.346Z,54.68
2023-03-05T03:54:22.798Z,55.44
2023-03-05T03:56:50.145Z,55.11
2023-03-05T03:59:17.159Z,55.08
2023-03-05T04:01:43.662Z,54.93
2023-03-05T04:04:12.708Z,56.59
2023-03-05T04:06:39.794Z,57.33
2023-03-05T04:09:06.842Z,56.52
2023-03-05T04:11:33.769Z,55.05
2023-03-05T04:14:00.293Z,54.94
2023-03-05T04:16:26.966Z,54.37
2023-03-05T04:18:53.610Z,53.79
2023-03-05T04:21:20.172Z,54.07
2023-03-05T04:23:46.638Z,53.61
2023-03-05T04:26:13.270Z,54.86
2023-03-05T04:28:39.766Z,55.08
2023-03-05T04:31:06.385Z,55.23
2023-03-05T04:33:32.907Z,54.78
2023-03-05T04:35:59.408Z,54.05
2023-03-05T04:38:26.003Z,54.12
2023-03-05T04:40:52.536Z,55.01
2023-03-05T04:43:19.217Z,54.50
2023-03-05T04:45:45.752Z,54.95
2023-03-05T04:48:12.864Z,55.43
2023-03-05T04:50:39.904Z,55.32
2023-03-05T04:53:06.465Z,55.75
2023-03-05T04:55:33.359Z,55.27
2023-03-05T04:57:59.861Z,55.66
2023-03-05T05:00:26.641Z,55.91
2023-03-05T05:02:53.455Z,55.63
2023-03-05T05:05:25.706Z,54.99
2023-03-05T05:07:57.665Z,54.35
2023-03-05T05:10:25.974Z,53.73
2023-03-05T05:12:52.885Z,53.45
2023-03-05T05:15:19.595Z,52.82
2023-03-05T05:17:46.232Z,53.06
2023-03-05T05:20:14.603Z,54.28
2023-03-05T05:22:41.450Z,54.52
2023-03-05T05:25:08.885Z,55.24
2023-03-05T05:27:35.716Z,55.60
2023-03-05T05:30:03.414Z,55.85
2023-03-05T05:32:29.968Z,56.64
2023-03-05T05:34:58.320Z,57.26
2023-03-05T05:37:26.349Z,58.27
2023-03-05T05:39:53.262Z,56.65
2023-03-05T05:42:22.427Z,55.99
2023-03-05T05:44:49.523Z,55.50
2023-03-05T05:47:17.467Z,55.25
2023-03-05T05:49:44.112Z,54.94
2023-03-05T05:52:11.413Z,55.16
2023-03-05T05:54:39.345Z,54.97
2023-03-05T05:57:06.451Z,54.95
2023-03-05T05:59:33.222Z,55.33
2023-03-05T06:01:59.921Z,56.16
2023-03-05T06:04:26.525Z,55.61
2023-03-05T06:06:53.035Z,56.01
2023-03-05T06:09:21.341Z,56.59
2023-03-05T06:11:47.866Z,55.98
2023-03-05T06:14:14.463Z,56.26
2023-03-05T06:16:41.057Z,56.81
2023-03-05T06:19:11.225Z,58.52
2023-03-05T06:21:37.923Z,58.03
2023-03-05T06:24:04.830Z,57.58
2023-03-05T06:26:31.725Z,57.16
2023-03-05T06:28:58.573Z,56.03
2023-03-05T06:31:27.778Z,55.54
2023-03-05T06:34:00.572Z,55.57
2023-03-05T06:36:27.557Z,54.75
2023-03-05T06:38:55.143Z,54.74
2023-03-05T06:41:25.090Z,53.94
2023-03-05T06:43:51.641Z,53.40
2023-03-05T06:46:22.145Z,52.97
2023-03-05T06:48:50.011Z,52.68
2023-03-05T06:51:22.982Z,52.38
2023-03-05T06:53:49.745Z,51.67
2023-03-05T06:56:17.925Z,51.58
2023-03-05T06:58:47.892Z,51.36
2023-03-05T07:01:15.334Z,51.13
2023-03-05T07:03:42.804Z,51.06
2023-03-05T07:06:14.809Z,51.11
2023-03-05T07:08:42.093Z,51.28
2023-03-05T07:11:13.587Z,52.78
2023-03-05T07:13:40.324Z,53.24
2023-03-05T07:16:14.862Z,53.41
2023-03-05T07:18:41.397Z,54.59
2023-03-05T07:21:09.476Z,55.70
2023-03-05T07:23:36.896Z,56.30
2023-03-05T07:26:05.832Z,56.30
2023-03-05T07:28:33.560Z,57.11
2023-03-05T07:31:14.591Z,57.03
2023-03-05T07:33:41.450Z,57.64
2023-03-05T07:36:09.590Z,56.28
2023-03-05T07:38:37.996Z,55.87
2023-03-05T07:41:07.170Z,55.13
2023-03-05T07:43:33.669Z,54.75
2023-03-05T07:46:04.565Z,55.32
2023-03-05T07:48:31.062Z,54.44
2023-03-05T07:51:10.211Z,54.05
2023-03-05T07:53:37.131Z,53.43
2023-03-05T07:56:03.886Z,52.58
2023-03-05T07:58:30.356Z,52.64
2023-03-05T08:00:56.839Z,52.60
2023-03-05T08:03:23.423Z,51.68
2023-03-05T08:05:49.954Z,50.97
2023-03-05T08:08:16.655Z,51.83
2023-03-05T08:10:43.300Z,51.57
2023-03-05T08:13:10.266Z,51.46
2023-03-05T08:15:37.863Z,51.11
2023-03-05T08:18:05.882Z,50.94
2023-03-05T08:20:35.682Z,50.70
2023-03-05T08:23:03.992Z,50.52
2023-03-05T08:25:31.058Z,49.81
2023-03-05T08:27:57.573Z,49.78
2023-03-05T08:30:24.123Z,49.29
2023-03-05T08:32:52.057Z,48.96
2023-03-05T08:35:18.727Z,48.56
2023-03-05T08:37:45.247Z,48.83
2023-03-05T08:40:12.385Z,48.10
2023-03-05T08:42:42.028Z,48.50
2023-03-05T08:45:09.502Z,47.90
2023-03-05T08:47:36.128Z,47.97
2023-03-05T08:50:02.648Z,48.10
2023-03-05T08:52:29.146Z,48.12
2023-03-05T08:54:55.641Z,48.36
2023-03-05T08:57:22.127Z,48.34
2023-03-05T08:59:48.716Z,47.96
2023-03-05T09:02:15.205Z,47.82
2023-03-05T09:04:41.691Z,47.79
2023-03-05T09:07:08.886Z,47.76
2023-03-05T09:09:36.281Z,47.84
2023-03-05T09:12:02.870Z,48.24
2023-03-05T09:14:29.483Z,48.66
2023-03-05T09:16:57.548Z,48.99
2023-03-05T09:19:24.633Z,49.14
2023-03-05T09:21:51.479Z,49.79
2023-03-05T09:24:18.048Z,50.21
2023-03-05T09:26:44.574Z,50.23
2023-03-05T09:29:11.295Z,49.81
2023-03-05T09:31:38.387Z,49.51
2023-03-05T09:34:06.060Z,49.44
2023-03-05T09:36:32.797Z,48.64
2023-03-05T09:39:02.803Z,48.74
2023-03-05T09:41:54.009Z,49.07
2023-03-05T09:44:42.876Z,49.13
2023-03-05T09:47:45.930Z,49.75
2023-03-05T09:50:53.992Z,50.27
2023-03-05T09:53:52.061Z,49.19
2023-03-05T09:56:25.485Z,48.85
2023-03-05T09:59:02.319Z,49.16
2023-03-05T10:01:42.268Z,48.67
2023-03-05T10:04:08.731Z,48.39
2023-03-05T10:07:22.027Z,48.56
2023-03-05T10:10:00.192Z,48.48
2023-03-05T10:12:45.820Z,48.37
2023-03-05T10:15:16.133Z,48.81
2023-03-05T10:18:19.887Z,49.34
2023-03-05T10:21:21.961Z,49.46
2023-03-05T10:23:58.670Z,49.63
2023-03-05T10:26:27.746Z,49.27
2023-03-05T10:29:36.113Z,49.83
2023-03-05T10:32:21.980Z,50.19
2023-03-05T10:35:19.272Z,51.04
2023-03-05T10:37:56.819Z,50.67
2023-03-05T10:40:42.877Z,50.29
2023-03-05T10:43:33.396Z,50.16
2023-03-05T10:46:04.317Z,50.33
2023-03-05T10:48:42.782Z,50.40
2023-03-05T10:51:22.429Z,50.55
2023-03-05T10:53:56.933Z,50.94
2023-03-05T10:56:28.216Z,51.12
2023-03-05T10:58:54.956Z,50.33
2023-03-05T11:01:28.597Z,50.56
2023-03-05T11:04:21.580Z,49.90
2023-03-05T11:06:48.255Z,49.85
2023-03-05T11:09:25.404Z,50.55
2023-03-05T11:12:18.048Z,50.47
2023-03-05T11:15:05.002Z,50.48
2023-03-05T11:17:33.486Z,50.64
2023-03-05T11:20:28.000Z,51.52
2023-03-05T11:23:13.694Z,51.68
2023-03-05T11:26:00.515Z,52.11
2023-03-05T11:28:40.536Z,51.68
2023-03-05T11:31:21.987Z,50.87
2023-03-05T11:34:19.808Z,50.79
2023-03-05T11:36:52.030Z,51.17
2023-03-05T11:39:21.948Z,51.18
2023-03-05T11:41:57.261Z,51.84
2023-03-05T11:44:30.014Z,51.39
2023-03-05T11:47:01.508Z,51.79
2023-03-05T11:49:30.256Z,51.98
2023-03-05T11:52:26.188Z,51.20
2023-03-05T11:55:02.797Z,51.00
2023-03-05T11:57:39.195Z,51.64
2023-03-05T12:00:12.812Z,51.23
2023-03-05T12:02:39.494Z,51.77
2023-03-05T12:05:07.706Z,52.97
2023-03-05T12:07:44.525Z,53.19
2023-03-05T12:10:23.264Z,53.40
2023-03-05T12:13:26.848Z,53.11
2023-03-05T12:16:24.798Z,53.26
2023-03-05T12:19:08.780Z,52.52
2023-03-05T12:21:41.190Z,52.50
2023-03-05T12:24:28.172Z,52.09
2023-03-05T12:27:01.342Z,52.45
2023-03-05T12:29:46.653Z,53.15
2023-03-05T12:32:22.360Z,53.33
2023-03-05T12:34:56.885Z,53.84
2023-03-05T12:37:23.374Z,53.52
2023-03-05T12:39:57.726Z,53.22
2023-03-05T12:42:30.091Z,52.67
2023-03-05T12:45:11.676Z,52.49
2023-03-05T12:47:56.385Z,51.81
2023-03-05T12:50:28.951Z,51.21
2023-03-05T12:53:04.449Z,51.25
2023-03-05T12:55:55.034Z,51.34
2023-03-05T12:58:42.141Z,50.85
2023-03-05T13:01:11.711Z,49.86
2023-03-05T13:03:54.804Z,49.41
2023-03-05T13:06:33.345Z,48.21
2023-03-05T13:09:04.928Z,48.04
2023-03-05T13:11:36.645Z,48.31
2023-03-05T13:14:03.626Z,47.40
2023-03-05T13:16:38.793Z,47.41
2023-03-05T13:19:16.959Z,47.23
2023-03-05T13:21:43.488Z,46.75
2023-03-05T13:24:17.943Z,45.51
2023-03-05T13:26:44.742Z,46.18
2023-03-05T13:29:17.579Z,45.88
2023-03-05T13:31:58.905Z,45.11
2023-03-05T13:34:41.095Z,44.86
2023-03-05T13:37:19.838Z,44.44
2023-03-05T13:39:58.501Z,44.20
2023-03-05T13:42:30.271Z,44.11
2023-03-05T13:45:02.934Z,43.26
2023-03-05T13:47:33.097Z,43.55
2023-03-05T13:50:21.783Z,42.35
2023-03-05T13:52:48.280Z,42.18
2023-03-05T13:55:17.917Z,42.78
2023-03-05T13:57:52.340Z,41.75
2023-03-05T14:00:25.791Z,40.75
2023-03-05T14:02:54.773Z,39.99
2023-03-05T14:05:22.140Z,39.18
2023-03-05T14:07:50.651Z,39.01
2023-03-05T14:10:38.197Z,38.47
2023-03-05T14:13:19.082Z,37.96
2023-03-05T14:16:10.441Z,37.26
2023-03-05T14:18:38.124Z,37.30
2023-03-05T14:21:05.684Z,36.83
2023-03-05T14:23:39.801Z,36.65
2023-03-05T14:26:26.323Z,36.87
2023-03-05T14:28:59.063Z,36.34
2023-03-05T14:31:28.293Z,35.62
2023-03-05T14:34:02.938Z,35.64
2023-03-05T14:36:31.246Z,35.00
2023-03-05T14:38:58.641Z,34.63
2023-03-05T14:41:41.643Z,33.04
2023-03-05T14:44:16.746Z,33.27
2023-03-05T14:46:48.971Z,32.77
2023-03-05T14:49:16.065Z,32.09
2023-03-05T14:51:45.324Z,32.15
2023-03-05T14:54:21.668Z,31.72
2023-03-05T14:56:48.986Z,30.38
2023-03-05T14:59:17.461Z,30.24
2023-03-05T15:01:44.390Z,29.84
2023-03-05T15:04:10.968Z,29.54
2023-03-05T15:06:40.290Z,29.26
2023-03-05T15:09:08.016Z,29.67
2023-03-05T15:11:35.105Z,29.69
2023-03-05T15:14:01.876Z,29.32
2023-03-05T15:16:28.477Z,29.76
2023-03-05T15:18:54.942Z,29.56
2023-03-05T15:21:21.443Z,29.77
2023-03-05T15:23:47.974Z,29.46
2023-03-05T15:26:15.035Z,29.93
2023-03-05T15:28:43.018Z,29.82
2023-03-05T15:31:10.763Z,29.57
2023-03-05T15:33:37.800Z,29.54
2023-03-05T15:36:04.795Z,29.54
2023-03-05T15:38:31.326Z,29.86
2023-03-05T15:40:59.354Z,29.82
2023-03-05T15:43:28.035Z,29.93
2023-03-05T15:45:54.559Z,30.12
2023-03-05T15:48:21.109Z,29.95
2023-03-05T15:50:47.594Z,29.90
2023-03-05T15:53:14.357Z,30.05
2023-03-05T15:55:41.934Z,30.17
2023-03-05T15:58:08.455Z,30.10
2023-03-05T16:00:36.655Z,30.45
2023-03-05T16:03:03.859Z,30.07
2023-03-05T16:05:30.452Z,30.23
2023-03-05T16:07:58.779Z,30.25
2023-03-05T16:10:28.346Z,30.41
2023-03-05T16:13:03.046Z,30.73
2023-03-05T16:15:32.597Z,30.78
2023-03-05T16:18:06.062Z,30.94
2023-03-05T16:20:32.671Z,30.97
2023-03-05T16:22:59.136Z,31.47
2023-03-05T16:25:25.834Z,31.25
2023-03-05T16:27:52.343Z,31.80
2023-03-05T16:30:19.244Z,32.16
2023-03-05T16:32:45.746Z,32.85
2023-03-05T16:35:13.035Z,33.45
2023-03-05T16:37:41.204Z,34.14
2023-03-05T16:40:09.788Z,34.50
2023-03-05T16:42:36.321Z,34.95
2023-03-05T16:45:03.959Z,35.29
2023-03-05T16:47:30.496Z,35.97
2023-03-05T16:49:57.030Z,36.35
2023-03-05T16:52:23.566Z,37.37
2023-03-05T16:54:50.430Z,37.96
2023-03-05T16:57:17.256Z,38.84
2023-03-05T16:59:44.151Z,39.08
2023-03-05T17:02:10.871Z,39.82
2023-03-05T17:04:37.369Z,40.55
2023-03-05T17:07:03.870Z,40.58
2023-03-05T17:09:30.377Z,40.77
2023-03-05T17:11:56.982Z,41.72
2023-03-05T17:14:23.493Z,41.97
2023-03-05T17:16:50.068Z,42.42
2023-03-05T17:19:18.744Z,42.76
2023-03-05T17:21:45.277Z,42.37
2023-03-05T17:24:11.881Z,42.54
2023-03-05T17:26:38.446Z,42.95
2023-03-05T17:29:05.742Z,43.08
2023-03-05T17:31:32.682Z,42.83
2023-03-05T17:33:59.297Z,43.47
2023-03-05T17:36:25.994Z,43.70
2023-03-05T17:38:53.440Z,43.85
2023-03-05T17:41:21.377Z,44.47
2023-03-05T17:43:47.909Z,44.46
2023-03-05T17:46:15.811Z,44.41
2023-03-05T17:48:42.426Z,44.94
2023-03-05T17:51:12.547Z,45.02
2023-03-05T17:53:39.181Z,45.41
2023-03-05T17:56:07.657Z,45.39
2023-03-05T17:58:34.173Z,45.93
2023-03-05T18:01:00.756Z,45.41
2023-03-05T18:03:27.295Z,45.91
2023-03-05T18:05:54.135Z,46.17
2023-03-05T18:08:20.658Z,46.75
2023-03-05T18:10:47.210Z,47.06
2023-03-05T18:13:15.805Z,47.20
2023-03-05T18:15:42.398Z,47.89
2023-03-05T18:18:08.884Z,48.15
2023-03-05T18:20:36.634Z,47.83
2023-03-05T18:23:05.461Z,48.45
2023-03-05T18:25:32.242Z,49.01
2023-03-05T18:28:05.509Z,48.78
2023-03-05T18:30:33.304Z,49.62
2023-03-05T18:33:00.294Z,49.70
2023-03-05T18:35:27.921Z,49.53
2023-03-05T18:37:54.629Z,49.60
2023-03-05T18:40:24.507Z,50.16
2023-03-05T18:42:51.191Z,49.83
2023-03-05T18:45:19.877Z,49.77
2023-03-05T18:47:46.680Z,50.22
2023-03-05T18:50:16.627Z,50.63
2023-03-05T18:52:43.313Z,49.88
2023-03-05T18:55:36.393Z,50.01
2023-03-05T18:58:02.939Z,50.12
2023-03-05T19:00:31.372Z,50.40
2023-03-05T19:02:58.732Z,49.88
2023-03-05T19:05:26.076Z,49.26
2023-03-05T19:07:54.105Z,50.00
2023-03-05T19:10:21.967Z,49.53
2023-03-05T19:13:07.304Z,49.67
2023-03-05T19:15:33.978Z,49.92
2023-03-05T19:18:00.503Z,49.99
2023-03-05T19:20:26.979Z,51.09
2023-03-05T19:22:53.782Z,51.10
2023-03-05T19:25:20.314Z,52.05
2023-03-05T19:27:46.775Z,50.33
2023-03-05T19:30:13.837Z,50.08
2023-03-05T19:32:58.684Z,49.47
2023-03-05T19:35:25.277Z,50.10
2023-03-05T19:37:51.814Z,51.95
2023-03-05T19:40:18.585Z,52.09
2023-03-05T19:42:45.136Z,51.91
2023-03-05T19:45:11.720Z,50.97
2023-03-05T19:47:38.225Z,50.98
2023-03-05T19:50:05.222Z,50.82
2023-03-05T19:52:33.292Z,51.41
2023-03-05T19:55:00.481Z,51.79
2023-03-05T19:57:26.996Z,52.31
2023-03-05T19:59:54.015Z,52.45
2023-03-05T20:02:20.510Z,52.24
2023-03-05T20:04:47.997Z,51.89
2023-03-05T20:07:14.888Z,51.36
2023-03-05T20:09:41.524Z,51.64
2023-03-05T20:12:08.142Z,51.76
2023-03-05T20:14:34.665Z,50.90
2023-03-05T20:17:01.360Z,50.98
2023-03-05T20:19:27.919Z,50.83
2023-03-05T20:21:54.466Z,51.20
2023-03-05T20:24:20.937Z,50.72
2023-03-05T20:26:48.551Z,50.45
2023-03-05T20:29:18.069Z,50.78
2023-03-05T20:31:45.932Z,50.43
2023-03-05T20:34:16.118Z,51.00
2023-03-05T20:36:43.422Z,50.91
2023-03-05T20:39:10.270Z,50.65
2023-03-05T20:41:39.337Z,50.77
2023-03-05T20:44:07.818Z,50.77
2023-03-05T20:46:37.633Z,50.84
2023-03-05T20:49:04.996Z,51.57
2023-03-05T20:51:37.062Z,51.35
2023-03-05T20:54:13.013Z,50.88
2023-03-05T20:56:39.784Z,51.27
2023-03-05T20:59:08.094Z,51.42
2023-03-05T21:01:37.058Z,50.77
2023-03-05T21:04:04.022Z,51.23
2023-03-05T21:06:32.021Z,51.08
2023-03-05T21:08:59.438Z,50.93
2023-03-05T21:11:26.367Z,51.13
2023-03-05T21:13:52.871Z,52.08
2023-03-05T21:16:23.445Z,51.61
2023-03-05T21:18:50.382Z,51.37
2023-03-05T21:21:16.878Z,51.61
2023-03-05T21:23:57.347Z,51.98
2023-03-05T21:26:23.863Z,52.31
2023-03-05T21:28:50.352Z,52.36
2023-03-05T21:31:20.253Z,52.09
2023-03-05T21:33:46.940Z,52.21
2023-03-05T21:36:13.623Z,52.30
2023-03-05T21:38:40.093Z,52.09
2023-03-05T21:41:06.571Z,52.42
2023-03-05T21:43:33.347Z,52.28
2023-03-05T21:46:01.411Z,52.06
2023-03-05T21:48:28.448Z,52.05
2023-03-05T21:50:55.502Z,51.67
2023-03-05T21:53:23.060Z,51.57
2023-03-05T21:56:27.968Z,52.06
2023-03-05T21:58:54.441Z,51.81
2023-03-05T22:01:21.533Z,52.03
2023-03-05T22:03:49.336Z,51.41
2023-03-05T22:06:18.085Z,51.44
2023-03-05T22:08:44.580Z,51.81
2023-03-05T22:11:13.413Z,52.09
2023-03-05T22:13:40.609Z,52.64
2023-03-05T22:16:08.669Z,52.93
2023-03-05T22:18:36.446Z,52.77
2023-03-05T22:21:04.258Z,53.46
2023-03-05T22:23:32.891Z,53.58
2023-03-05T22:26:03.322Z,53.32
2023-03-05T22:28:30.245Z,53.55
2023-03-05T22:30:57.745Z,53.52
2023-03-05T22:33:24.765Z,53.98
2023-03-05T22:35:51.515Z,53.95
2023-03-05T22:38:18.724Z,53.62
2023-03-05T22:40:47.845Z,53.97
2023-03-05T22:43:18.109Z,54.13
2023-03-05T22:45:44.880Z,54.07
2023-03-05T22:48:11.796Z,54.40
2023-03-05T22:50:40.069Z,54.18
2023-03-05T22:53:07.667Z,53.96
2023-03-05T22:55:34.288Z,54.30
2023-03-05T22:58:00.739Z,54.92
2023-03-05T23:00:27.212Z,55.18
2023-03-05T23:02:54.010Z,54.74
2023-03-05T23:05:21.220Z,54.74
2023-03-05T23:07:47.850Z,54.05
2023-03-05T23:10:16.994Z,54.82
2023-03-05T23:12:46.964Z,54.58
2023-03-05T23:15:26.582Z,54.21
2023-03-05T23:17:53.319Z,54.34
2023-03-05T23:20:22.539Z,54.30
2023-03-05T23:22:50.593Z,53.60
2023-03-05T23:25:17.147Z,53.81
2023-03-05T23:27:44.252Z,53.81
2023-03-05T23:30:19.288Z,53.80
2023-03-05T23:32:45.721Z,53.76
2023-03-05T23:35:14.868Z,53.79
2023-03-05T23:37:41.482Z,54.10
2023-03-05T23:40:12.769Z,54.42
2023-03-05T23:42:39.263Z,54.33
2023-03-05T23:45:10.792Z,54.69
2023-03-05T23:47:38.253Z,54.52
2023-03-05T23:50:07.637Z,54.29
2023-03-05T23:52:34.376Z,53.97
2023-03-05T23:55:00.931Z,54.68
2023-03-05T23:57:27.425Z,54.76
2023-03-05T23:59:53.906Z,54.94
